Time;durP1;ratioP1;P1;durP2;ratioP2;P2;SDS_P1;SDS_P2;PMS_P1;PMS_P2;Temp;Humidity;BMP_temperature;BMP_pressure;BME280_temperature;BME280_humidity;BME280_pressure;Samples;Min_cycle;Max_cycle;Signal;HPM_P1;HPM_P2
2020/12/20 00:01:59;;;;;;;13.07;5.60;;;8.30;99.90;;;;;;5052693;28;20044;-60
2020/12/20 00:04:45;;;;;;;11.25;4.97;;;8.20;99.90;;;;;;5051954;28;20474;-60
2020/12/20 00:07:31;;;;;;;9.27;5.55;;;8.40;99.90;;;;;;5052555;28;20091;-60
2020/12/20 00:10:19;;;;;;;7.95;4.57;;;8.40;99.90;;;;;;5053228;28;20037;-60
2020/12/20 00:13:05;;;;;;;10.23;5.20;;;8.50;99.90;;;;;;5053018;28;20655;-60
2020/12/20 00:15:51;;;;;;;9.70;5.30;;;8.50;99.90;;;;;;5052578;28;20124;-60
2020/12/20 00:18:37;;;;;;;9.88;4.57;;;8.40;99.90;;;;;;5052872;28;20056;-60
2020/12/20 00:21:23;;;;;;;8.57;3.78;;;8.40;99.90;;;;;;5052241;28;20041;-60
2020/12/20 00:24:11;;;;;;;8.07;4.70;;;8.40;99.90;;;;;;5051541;28;20037;-60
2020/12/20 00:26:58;;;;;;;7.82;4.70;;;8.40;99.90;;;;;;5052008;28;20041;-60
2020/12/20 00:29:44;;;;;;;9.70;4.70;;;8.40;99.90;;;;;;5052507;28;20038;-60
2020/12/20 00:32:30;;;;;;;9.98;5.38;;;8.40;99.90;;;;;;5052261;28;20353;-60
2020/12/20 00:35:17;;;;;;;8.90;5.05;;;8.40;99.90;;;;;;5052026;28;20048;-60
2020/12/20 00:38:03;;;;;;;9.68;5.15;;;8.30;99.90;;;;;;5052747;28;20410;-60
2020/12/20 00:40:49;;;;;;;9.75;5.18;;;8.40;99.90;;;;;;5052558;28;20420;-60
2020/12/20 00:43:35;;;;;;;9.20;5.43;;;8.30;99.90;;;;;;5052672;28;20041;-59
2020/12/20 00:46:21;;;;;;;8.73;5.13;;;8.30;99.90;;;;;;5052495;28;20036;-60
2020/12/20 00:49:07;;;;;;;10.50;5.22;;;8.30;99.90;;;;;;5051696;28;20084;-60
2020/12/20 00:52:02;;;;;;;10.73;5.75;;;8.30;99.90;;;;;;5051317;28;20037;-60
2020/12/20 00:54:48;;;;;;;8.35;4.97;;;8.20;99.90;;;;;;5038378;28;20040;-60
2020/12/20 00:57:34;;;;;;;10.43;5.38;;;8.20;99.90;;;;;;5051652;28;20040;-60
2020/12/20 01:00:20;;;;;;;9.48;5.00;;;8.10;99.90;;;;;;5052148;28;20497;-60
2020/12/20 01:03:06;;;;;;;10.32;5.43;;;8.00;99.90;;;;;;5052205;28;20029;-60
2020/12/20 01:05:53;;;;;;;9.10;5.32;;;8.00;99.90;;;;;;5051586;28;20037;-60
2020/12/20 01:08:39;;;;;;;9.38;5.25;;;8.00;99.90;;;;;;5052480;28;20033;-60
2020/12/20 01:11:25;;;;;;;9.38;5.53;;;8.00;99.90;;;;;;5051471;28;20120;-60
2020/12/20 01:14:11;;;;;;;7.57;4.60;;;8.00;99.90;;;;;;5051420;28;20037;-60
2020/12/20 01:16:59;;;;;;;12.07;5.30;;;8.10;99.90;;;;;;5050616;28;20128;-60
2020/12/20 01:19:45;;;;;;;9.55;4.70;;;8.20;99.90;;;;;;5051670;28;20029;-60
2020/12/20 01:22:32;;;;;;;10.77;5.15;;;8.20;99.90;;;;;;5051228;28;20040;-60
2020/12/20 01:25:18;;;;;;;9.40;5.22;;;8.20;99.90;;;;;;5051744;28;20067;-60
2020/12/20 01:28:04;;;;;;;9.55;5.32;;;8.20;99.90;;;;;;5051545;28;20037;-60
2020/12/20 01:30:52;;;;;;;9.00;5.22;;;8.20;99.90;;;;;;5051489;28;20029;-60
2020/12/20 01:33:39;;;;;;;9.15;4.55;;;8.20;99.90;;;;;;5051688;28;20406;-60
2020/12/20 01:36:25;;;;;;;9.25;5.88;;;8.20;99.90;;;;;;5036859;28;20037;-60
2020/12/20 01:39:14;;;;;;;9.88;5.00;;;8.40;99.90;;;;;;5050072;28;20037;-60
2020/12/20 01:42:00;;;;;;;10.77;5.53;;;8.40;99.90;;;;;;5050880;28;20036;-60
2020/12/20 01:44:46;;;;;;;10.43;5.35;;;8.30;99.90;;;;;;5051757;28;20045;-60
2020/12/20 01:47:33;;;;;;;7.72;4.78;;;8.30;99.90;;;;;;5050844;28;20044;-60
2020/12/20 01:50:20;;;;;;;9.68;4.53;;;8.30;99.90;;;;;;5036651;28;20029;-60
2020/12/20 01:53:06;;;;;;;8.65;4.50;;;8.30;99.90;;;;;;5038332;28;20100;-60
2020/12/20 01:56:02;;;;;;;7.50;4.50;;;8.40;99.90;;;;;;5036629;28;20539;-60
2020/12/20 01:58:48;;;;;;;9.95;4.57;;;8.40;99.90;;;;;;5035719;28;20040;-60
2020/12/20 02:01:34;;;;;;;9.23;5.00;;;8.40;99.90;;;;;;5051934;28;20037;-60
2020/12/20 02:04:20;;;;;;;7.70;4.95;;;8.20;99.90;;;;;;5052436;28;20065;-60
2020/12/20 02:07:06;;;;;;;9.95;4.70;;;8.30;99.90;;;;;;5050609;28;20074;-60
2020/12/20 02:09:52;;;;;;;8.95;4.85;;;8.40;99.90;;;;;;5054896;28;20466;-60
2020/12/20 02:12:38;;;;;;;7.68;4.65;;;8.40;99.90;;;;;;5054355;28;20171;-60
2020/12/20 02:15:24;;;;;;;9.80;5.13;;;8.60;99.90;;;;;;5055458;28;20041;-60
2020/12/20 02:18:10;;;;;;;11.45;5.28;;;8.60;99.90;;;;;;5053814;28;20029;-60
2020/12/20 02:20:56;;;;;;;7.05;4.53;;;8.40;99.90;;;;;;5055095;28;20392;-60
2020/12/20 02:23:44;;;;;;;8.13;4.50;;;8.40;99.90;;;;;;5054558;28;20037;-60
2020/12/20 02:26:30;;;;;;;10.48;4.93;;;8.40;99.90;;;;;;5054903;28;20056;-60
2020/12/20 02:29:16;;;;;;;9.18;4.88;;;8.30;99.90;;;;;;5054006;28;20409;-60
2020/12/20 02:32:02;;;;;;;10.07;5.22;;;8.20;99.90;;;;;;5054400;28;20402;-60
2020/12/20 02:34:48;;;;;;;9.38;4.90;;;8.00;99.90;;;;;;5054763;28;20048;-60
2020/12/20 02:37:34;;;;;;;8.55;4.88;;;7.90;99.90;;;;;;5055041;28;20099;-60
2020/12/20 02:40:20;;;;;;;7.95;4.43;;;7.90;99.90;;;;;;5054175;28;20052;-60
2020/12/20 02:43:07;;;;;;;7.05;4.10;;;7.90;99.90;;;;;;5055026;28;20044;-60
2020/12/20 02:45:53;;;;;;;8.75;5.03;;;7.90;99.90;;;;;;5053208;28;20041;-60
2020/12/20 02:48:40;;;;;;;9.45;4.50;;;7.90;99.90;;;;;;5054458;28;20084;-60
2020/12/20 02:51:26;;;;;;;11.23;5.28;;;8.00;99.90;;;;;;5054641;28;20086;-60
2020/12/20 02:54:12;;;;;;;9.10;4.75;;;8.00;99.90;;;;;;5053444;28;20037;-60
2020/12/20 02:56:58;;;;;;;8.00;4.20;;;7.80;99.90;;;;;;5054462;28;20505;-60
2020/12/20 02:59:44;;;;;;;7.32;4.43;;;7.80;99.90;;;;;;5054540;28;20128;-60
2020/12/20 03:02:30;;;;;;;10.40;5.28;;;7.80;99.90;;;;;;5054462;28;20029;-60
2020/12/20 03:05:17;;;;;;;10.02;4.25;;;7.70;99.90;;;;;;5054197;28;20028;-60
2020/12/20 03:08:03;;;;;;;6.82;3.90;;;7.80;99.90;;;;;;5039156;28;20037;-60
2020/12/20 03:10:50;;;;;;;9.07;4.68;;;7.90;99.90;;;;;;5054236;28;20115;-60
2020/12/20 03:13:36;;;;;;;8.73;4.55;;;7.90;99.90;;;;;;5054726;28;20433;-60
2020/12/20 03:16:22;;;;;;;7.00;4.15;;;7.90;99.90;;;;;;5054379;28;20469;-60
2020/12/20 03:19:08;;;;;;;7.32;4.28;;;7.90;99.90;;;;;;5053829;28;20048;-60
2020/12/20 03:21:54;;;;;;;9.15;4.63;;;7.90;99.90;;;;;;5052695;28;20048;-60
2020/12/20 03:24:41;;;;;;;9.27;4.85;;;8.10;99.90;;;;;;5053118;28;20496;-60
2020/12/20 03:27:27;;;;;;;9.38;4.60;;;8.00;99.90;;;;;;5053529;28;20037;-60
2020/12/20 03:30:13;;;;;;;8.40;4.78;;;8.10;99.90;;;;;;5053375;28;20037;-60
2020/12/20 03:32:59;;;;;;;7.72;4.30;;;7.80;99.90;;;;;;5053308;28;20068;-60
2020/12/20 03:35:45;;;;;;;11.38;5.10;;;7.90;99.90;;;;;;5052398;28;20041;-61
2020/12/20 03:38:31;;;;;;;8.75;5.00;;;7.80;99.90;;;;;;5053356;28;20072;-60
2020/12/20 03:41:17;;;;;;;7.90;4.47;;;7.90;99.90;;;;;;5053877;28;20119;-60
2020/12/20 03:44:03;;;;;;;8.27;4.68;;;8.00;99.90;;;;;;5052657;28;20039;-60
2020/12/20 03:46:50;;;;;;;9.82;5.35;;;8.00;99.90;;;;;;5053009;28;20044;-60
2020/12/20 03:49:36;;;;;;;9.52;5.35;;;8.00;99.90;;;;;;5052816;28;20059;-60
2020/12/20 03:52:22;;;;;;;9.32;5.30;;;8.00;99.90;;;;;;5053444;28;20029;-60
2020/12/20 03:55:08;;;;;;;11.18;4.65;;;8.00;99.90;;;;;;5052697;28;20414;-60
2020/12/20 03:57:54;;;;;;;7.00;4.65;;;8.00;99.90;;;;;;5052681;28;20497;-60
2020/12/20 04:00:40;;;;;;;8.20;4.82;;;8.10;99.90;;;;;;5052754;28;20037;-61
2020/12/20 04:03:26;;;;;;;9.00;4.90;;;8.10;99.90;;;;;;5052687;28;20025;-60
2020/12/20 04:06:12;;;;;;;9.90;4.60;;;8.10;99.90;;;;;;5052570;28;20053;-60
2020/12/20 04:08:58;;;;;;;7.40;4.82;;;8.20;99.90;;;;;;5052998;28;20131;-60
2020/12/20 04:11:44;;;;;;;9.63;4.78;;;8.20;99.90;;;;;;5052009;28;20507;-60
2020/12/20 04:14:30;;;;;;;9.23;4.90;;;8.10;99.90;;;;;;5052483;28;20029;-60
2020/12/20 04:17:16;;;;;;;7.85;4.50;;;7.90;99.90;;;;;;5053660;28;20056;-60
2020/12/20 04:20:02;;;;;;;9.10;5.15;;;7.90;99.90;;;;;;5052886;28;20033;-60
2020/12/20 04:22:48;;;;;;;10.20;4.70;;;7.80;99.90;;;;;;5038134;28;20086;-61
2020/12/20 04:25:34;;;;;;;7.82;4.68;;;7.80;99.90;;;;;;5052476;28;20033;-61
2020/12/20 04:28:20;;;;;;;8.25;5.03;;;7.60;99.90;;;;;;5052946;28;20045;-61
2020/12/20 04:31:06;;;;;;;8.73;5.95;;;7.30;99.90;;;;;;5052144;28;20043;-60
2020/12/20 04:33:52;;;;;;;10.25;5.35;;;7.20;99.90;;;;;;5052317;28;20040;-61
2020/12/20 04:36:38;;;;;;;10.45;5.35;;;7.20;99.90;;;;;;5051413;28;20484;-60
2020/12/20 04:39:25;;;;;;;11.32;5.13;;;7.10;99.90;;;;;;5051989;28;20405;-60
2020/12/20 04:42:11;;;;;;;8.93;4.82;;;7.10;99.90;;;;;;5051116;28;20033;-61
2020/12/20 04:44:57;;;;;;;8.25;4.68;;;7.00;99.90;;;;;;5051795;28;20374;-60
2020/12/20 04:47:48;;;;;;;9.43;5.15;;;7.10;99.90;;;;;;5036892;28;20574;-61
2020/12/20 04:50:34;;;;;;;9.18;5.93;;;7.00;99.90;;;;;;5051751;28;20063;-60
2020/12/20 04:53:21;;;;;;;8.60;5.20;;;7.10;99.90;;;;;;5036725;28;20094;-61
2020/12/20 04:56:11;;;;;;;10.90;5.78;;;6.90;99.90;;;;;;5037598;28;20444;-61
2020/12/20 04:58:58;;;;;;;8.77;5.38;;;6.90;99.90;;;;;;5037354;28;20037;-60
2020/12/20 05:01:44;;;;;;;12.32;5.80;;;6.90;99.90;;;;;;5037003;28;20037;-60
2020/12/20 05:04:30;;;;;;;10.55;6.13;;;6.90;99.90;;;;;;5037352;28;20112;-60
2020/12/20 05:07:17;;;;;;;9.65;5.72;;;6.80;99.90;;;;;;5037018;28;20393;-60
2020/12/20 05:10:05;;;;;;;11.68;6.60;;;6.60;99.90;;;;;;5052582;28;20055;-60
2020/12/20 05:12:54;;;;;;;10.57;5.32;;;6.60;99.90;;;;;;5051030;28;20032;-60
2020/12/20 05:15:40;;;;;;;9.85;5.57;;;6.60;99.90;;;;;;5051324;28;20025;-60
2020/12/20 05:18:26;;;;;;;10.27;6.32;;;6.50;99.90;;;;;;5052530;28;20066;-60
2020/12/20 05:21:26;;;;;;;13.60;6.75;;;6.50;99.90;;;;;;5051304;28;20029;-60
2020/12/20 05:24:30;;;;;;;13.77;6.35;;;6.40;99.90;;;;;;5051100;28;20047;-60
2020/12/20 05:27:30;;;;;;;14.55;6.90;;;6.30;99.90;;;;;;5051013;28;20037;-60
2020/12/20 05:30:18;;;;;;;13.35;6.97;;;6.30;99.90;;;;;;5049805;28;20037;-61
2020/12/20 05:33:04;;;;;;;10.52;6.70;;;6.30;99.90;;;;;;5050629;28;20490;-61
2020/12/20 05:36:03;;;;;;;13.55;6.68;;;6.40;99.90;;;;;;5050382;28;20033;-60
2020/12/20 05:38:49;;;;;;;10.80;6.35;;;6.50;99.90;;;;;;5051613;28;20037;-61
2020/12/20 05:41:35;;;;;;;11.75;6.40;;;6.50;99.90;;;;;;5051025;28;20043;-61
2020/12/20 05:44:25;;;;;;;12.70;6.22;;;6.40;99.90;;;;;;5050113;28;20041;-61
2020/12/20 05:47:11;;;;;;;10.45;5.93;;;6.50;99.90;;;;;;5051262;28;20025;-60
2020/12/20 05:49:57;;;;;;;12.70;6.25;;;6.50;99.90;;;;;;5029905;28;20128;-61
2020/12/20 05:52:58;;;;;;;10.77;6.05;;;6.60;99.90;;;;;;5016842;28;20041;-61
2020/12/20 05:55:44;;;;;;;11.85;6.25;;;6.60;99.90;;;;;;5018394;28;20041;-61
2020/12/20 05:58:31;;;;;;;11.70;6.07;;;6.80;99.90;;;;;;5032518;28;20037;-61
2020/12/20 06:01:20;;;;;;;11.20;6.13;;;6.80;99.90;;;;;;5016711;28;20038;-61
2020/12/20 06:04:06;;;;;;;10.90;6.20;;;6.80;99.90;;;;;;5018762;28;20080;-62
2020/12/20 06:06:59;;;;;;;10.38;5.68;;;6.80;99.90;;;;;;5016675;28;20045;-61
2020/12/20 06:09:55;;;;;;;8.63;5.22;;;6.90;99.90;;;;;;5031972;28;20045;-61
2020/12/20 06:12:49;;;;;;;10.90;6.68;;;7.00;99.90;;;;;;5018025;28;20640;-61
2020/12/20 06:15:38;;;;;;;10.20;6.22;;;6.90;99.90;;;;;;5030855;28;20029;-61
2020/12/20 06:18:29;;;;;;;8.40;4.97;;;6.90;99.90;;;;;;5029652;28;20478;-61
2020/12/20 06:21:40;;;;;;;10.25;5.05;;;6.90;99.90;;;;;;5031254;28;20038;-61
2020/12/20 06:24:36;;;;;;;12.75;5.68;;;6.70;99.90;;;;;;5031121;28;20034;-61
2020/12/20 06:27:26;;;;;;;10.30;5.38;;;6.70;99.90;;;;;;5032059;28;20390;-61
2020/12/20 06:30:12;;;;;;;9.23;5.18;;;6.70;99.90;;;;;;5031065;28;20100;-61
2020/12/20 06:33:03;;;;;;;10.13;5.40;;;6.70;99.90;;;;;;5030086;28;20029;-61
2020/12/20 06:35:50;;;;;;;10.90;5.35;;;6.70;99.90;;;;;;5016031;28;20117;-61
2020/12/20 06:38:37;;;;;;;7.32;4.88;;;6.70;99.90;;;;;;5031007;28;20044;-61
2020/12/20 06:41:37;;;;;;;9.43;5.10;;;6.70;99.90;;;;;;5029674;28;20092;-61
2020/12/20 06:44:23;;;;;;;10.15;5.30;;;6.70;99.90;;;;;;5016506;28;20033;-58
2020/12/20 06:47:10;;;;;;;9.43;5.40;;;6.70;99.90;;;;;;5020518;28;20033;-58
2020/12/20 06:49:56;;;;;;;9.85;5.38;;;6.80;99.90;;;;;;5016353;28;20108;-60
2020/12/20 06:52:49;;;;;;;9.80;5.70;;;6.80;99.90;;;;;;5031415;28;20053;-60
2020/12/20 06:55:35;;;;;;;12.52;5.85;;;7.00;99.90;;;;;;5033221;28;20145;-60
2020/12/20 06:58:21;;;;;;;8.65;5.40;;;6.90;99.90;;;;;;5033347;28;20509;-60
2020/12/20 07:01:07;;;;;;;13.25;6.30;;;6.90;99.90;;;;;;5034106;28;20091;-59
2020/12/20 07:03:53;;;;;;;11.35;6.10;;;7.00;99.90;;;;;;5034657;28;20043;-59
2020/12/20 07:06:40;;;;;;;10.18;5.78;;;7.00;99.90;;;;;;5034611;28;20034;-60
2020/12/20 07:09:32;;;;;;;11.38;6.13;;;7.10;99.90;;;;;;5033693;28;20465;-60
2020/12/20 07:12:31;;;;;;;12.35;6.32;;;7.10;99.90;;;;;;5034233;28;20033;-60
2020/12/20 07:15:51;;;;;;;9.73;5.78;;;7.00;99.90;;;;;;5018809;28;20108;-59
2020/12/20 07:18:58;;;;;;;8.70;5.70;;;6.90;99.90;;;;;;5013706;28;20089;-59
2020/12/20 07:21:51;;;;;;;11.27;7.15;;;6.90;99.90;;;;;;5001460;28;20034;-60
2020/12/20 07:24:37;;;;;;;10.30;5.72;;;7.00;99.90;;;;;;5013896;28;20495;-59
2020/12/20 07:27:24;;;;;;;10.65;6.10;;;6.90;99.90;;;;;;5014181;28;20041;-59
2020/12/20 07:30:12;;;;;;;12.32;6.05;;;6.80;99.90;;;;;;4998843;28;20053;-58
2020/12/20 07:32:59;;;;;;;10.07;6.30;;;6.90;99.90;;;;;;5015129;28;20116;-58
2020/12/20 07:35:49;;;;;;;12.80;7.03;;;6.90;99.90;;;;;;4999168;28;20041;-59
2020/12/20 07:38:35;;;;;;;11.32;6.25;;;6.80;99.90;;;;;;5014667;28;20065;-58
2020/12/20 07:41:24;;;;;;;16.17;7.32;;;6.80;99.90;;;;;;5014056;28;20048;-59
2020/12/20 07:44:11;;;;;;;11.20;6.53;;;6.90;99.90;;;;;;5013156;28;20026;-60
2020/12/20 07:46:57;;;;;;;12.00;6.53;;;6.80;99.90;;;;;;5006296;28;20554;-60
2020/12/20 07:49:43;;;;;;;14.65;7.72;;;6.70;99.90;;;;;;5019548;28;20495;-60
2020/12/20 07:52:29;;;;;;;10.15;6.47;;;6.60;99.90;;;;;;5018276;28;20518;-60
2020/12/20 07:55:16;;;;;;;13.63;6.90;;;6.70;99.90;;;;;;5032979;28;20029;-60
2020/12/20 07:58:03;;;;;;;12.88;7.63;;;6.70;99.90;;;;;;5031982;28;20037;-60
2020/12/20 08:00:49;;;;;;;11.55;6.82;;;6.90;99.90;;;;;;5019139;28;20072;-59
2020/12/20 08:03:35;;;;;;;13.07;6.82;;;6.90;99.90;;;;;;5031916;28;20048;-60
2020/12/20 08:06:22;;;;;;;16.15;8.05;;;6.80;99.90;;;;;;5029004;28;20038;-59
2020/12/20 08:09:15;;;;;;;19.70;8.77;;;6.80;99.90;;;;;;5018947;28;20041;-60
2020/12/20 08:12:01;;;;;;;16.02;9.35;;;6.80;99.90;;;;;;5018638;28;20068;-58
2020/12/20 08:14:47;;;;;;;14.32;7.50;;;6.80;99.90;;;;;;5031989;28;20033;-60
2020/12/20 08:17:35;;;;;;;11.07;6.90;;;6.80;99.90;;;;;;5031716;28;20036;-60
2020/12/20 08:20:22;;;;;;;12.88;6.88;;;6.80;99.90;;;;;;5018254;28;20036;-59
2020/12/20 08:23:10;;;;;;;12.50;6.93;;;6.80;99.90;;;;;;5018239;28;20052;-60
2020/12/20 08:26:01;;;;;;;12.15;7.55;;;6.80;99.90;;;;;;5030860;28;20037;-59
2020/12/20 08:28:47;;;;;;;13.35;7.30;;;6.70;99.90;;;;;;5032220;28;20112;-63
2020/12/20 08:31:34;;;;;;;16.05;7.90;;;6.60;99.90;;;;;;5031551;28;20120;-63
2020/12/20 08:34:23;;;;;;;15.60;7.75;;;6.70;99.90;;;;;;5018058;28;20041;-65
2020/12/20 08:37:15;;;;;;;14.90;7.65;;;6.60;99.90;;;;;;5032753;28;20463;-60
2020/12/20 08:40:16;;;;;;;16.08;9.57;;;6.60;99.90;;;;;;5033851;28;20536;-60
2020/12/20 08:43:03;;;;;;;15.75;8.98;;;6.60;99.90;;;;;;5032357;28;20100;-60
2020/12/20 08:45:49;;;;;;;16.23;8.60;;;6.60;99.90;;;;;;5032138;28;20049;-59
2020/12/20 08:48:35;;;;;;;15.00;8.52;;;6.60;99.90;;;;;;5043207;28;20064;-60
2020/12/20 08:51:23;;;;;;;16.05;8.52;;;6.60;99.90;;;;;;5024154;28;20068;-61
2020/12/20 08:54:11;;;;;;;15.25;8.68;;;6.60;99.90;;;;;;5051797;28;20033;-60
2020/12/20 08:57:02;;;;;;;14.60;8.35;;;6.60;99.90;;;;;;5052089;28;20107;-60
2020/12/20 08:59:48;;;;;;;16.23;9.55;;;6.60;99.90;;;;;;5051897;28;20547;-59
2020/12/20 09:02:34;;;;;;;15.00;9.32;;;6.70;99.90;;;;;;5036978;28;20045;-60
2020/12/20 09:05:20;;;;;;;13.75;8.88;;;6.80;99.90;;;;;;5052925;28;20510;-60
2020/12/20 09:08:06;;;;;;;15.23;8.55;;;6.90;99.90;;;;;;5051828;28;20541;-58
2020/12/20 09:10:52;;;;;;;12.82;7.05;;;7.20;99.90;;;;;;5052410;28;20182;-59
2020/12/20 09:13:38;;;;;;;11.48;7.50;;;7.30;99.90;;;;;;5051600;28;20175;-59
2020/12/20 09:16:24;;;;;;;12.60;7.20;;;7.30;99.90;;;;;;5052552;28;20029;-59
2020/12/20 09:19:14;;;;;;;13.57;7.50;;;7.30;99.90;;;;;;5052669;28;20033;-59
2020/12/20 09:22:00;;;;;;;20.63;9.27;;;7.30;99.90;;;;;;5051459;28;20029;-58
2020/12/20 09:24:47;;;;;;;16.33;8.65;;;7.40;99.90;;;;;;5047764;28;20038;-59
2020/12/20 09:27:34;;;;;;;13.27;7.20;;;7.50;99.90;;;;;;5036760;28;20386;-59
2020/12/20 09:30:31;;;;;;;13.85;7.60;;;7.60;99.90;;;;;;5036153;28;20090;-59
2020/12/20 09:33:21;;;;;;;11.30;6.75;;;7.80;99.90;;;;;;5050422;28;20677;-59
2020/12/20 09:36:14;;;;;;;11.30;6.47;;;7.80;99.90;;;;;;5050896;28;20043;-59
2020/12/20 09:39:03;;;;;;;10.90;6.95;;;7.90;99.90;;;;;;5050920;28;20051;-59
2020/12/20 09:41:49;;;;;;;14.20;7.47;;;8.10;99.90;;;;;;5051367;28;20501;-59
2020/12/20 09:44:35;;;;;;;15.70;6.70;;;8.10;99.90;;;;;;5051232;28;20544;-59
2020/12/20 09:47:21;;;;;;;11.63;7.38;;;8.20;99.90;;;;;;5051374;28;20029;-60
2020/12/20 09:50:08;;;;;;;17.13;7.45;;;8.30;99.90;;;;;;5050451;28;20512;-59
2020/12/20 09:52:54;;;;;;;13.85;7.13;;;8.40;99.90;;;;;;5036129;28;20033;-60
2020/12/20 09:55:43;;;;;;;12.35;6.85;;;8.30;99.90;;;;;;5050337;28;20494;-60
2020/12/20 09:58:29;;;;;;;10.13;6.25;;;8.50;99.90;;;;;;5036161;28;20090;-60
2020/12/20 10:01:21;;;;;;;18.05;7.38;;;8.60;99.90;;;;;;5049966;28;20032;-60
2020/12/20 10:04:07;;;;;;;14.57;7.40;;;8.40;99.90;;;;;;5050575;28;20125;-60
2020/12/20 10:06:53;;;;;;;15.32;8.13;;;8.50;99.90;;;;;;5049399;28;20120;-60
2020/12/20 10:09:39;;;;;;;15.85;8.80;;;8.50;99.90;;;;;;5050850;28;20090;-59
2020/12/20 10:12:25;;;;;;;16.70;8.05;;;8.50;99.90;;;;;;5050270;28;20026;-59
2020/12/20 10:15:11;;;;;;;14.30;8.25;;;8.70;99.90;;;;;;5051199;28;20033;-60
2020/12/20 10:18:01;;;;;;;12.95;7.65;;;8.40;99.90;;;;;;5050967;28;20036;-59
2020/12/20 10:20:47;;;;;;;13.93;7.90;;;8.60;99.90;;;;;;5036238;28;20440;-58
2020/12/20 10:23:33;;;;;;;15.20;8.13;;;8.60;99.90;;;;;;5051012;28;20068;-59
2020/12/20 10:26:19;;;;;;;13.18;7.57;;;8.70;99.90;;;;;;5050722;28;20406;-59
2020/12/20 10:29:05;;;;;;;12.80;7.85;;;8.70;99.90;;;;;;5050459;28;20040;-58
2020/12/20 10:31:51;;;;;;;14.07;8.10;;;8.80;99.90;;;;;;5055082;28;20033;-59
2020/12/20 10:34:37;;;;;;;15.95;9.23;;;8.80;99.90;;;;;;5054955;28;20612;-60
2020/12/20 10:37:24;;;;;;;13.45;9.25;;;8.70;99.90;;;;;;5053420;28;20037;-59
2020/12/20 10:40:10;;;;;;;14.43;8.77;;;8.60;99.90;;;;;;5054088;28;20033;-56
2020/12/20 10:42:56;;;;;;;16.30;8.55;;;8.60;99.90;;;;;;5054819;28;20486;-58
2020/12/20 10:45:42;;;;;;;19.90;9.57;;;8.50;99.90;;;;;;5054238;28;20036;-59
2020/12/20 10:48:29;;;;;;;17.17;9.32;;;8.40;99.90;;;;;;5054381;28;20060;-60
2020/12/20 10:51:19;;;;;;;18.10;8.93;;;8.30;99.90;;;;;;5039106;28;20553;-59
2020/12/20 10:54:05;;;;;;;16.27;8.27;;;8.40;99.90;;;;;;5039940;28;20064;-59
2020/12/20 10:56:54;;;;;;;15.40;8.35;;;8.30;99.90;;;;;;5054573;28;20276;-59
2020/12/20 10:59:40;;;;;;;14.30;7.95;;;8.40;99.90;;;;;;5054361;28;20550;-59
2020/12/20 11:02:26;;;;;;;14.43;8.45;;;8.50;99.90;;;;;;5053499;28;20112;-58
2020/12/20 11:05:12;;;;;;;14.07;8.27;;;8.50;99.90;;;;;;5055018;28;20037;-59
2020/12/20 11:07:58;;;;;;;13.95;7.55;;;8.50;99.90;;;;;;5038791;28;20036;-57
2020/12/20 11:10:44;;;;;;;12.73;7.57;;;8.40;99.90;;;;;;5035366;28;20048;-57
2020/12/20 11:13:32;;;;;;;11.48;7.38;;;8.30;99.90;;;;;;5033782;28;20124;-57
2020/12/20 11:16:19;;;;;;;15.18;8.10;;;8.20;99.90;;;;;;5036472;28;20466;-58
2020/12/20 11:19:05;;;;;;;13.43;7.85;;;8.20;99.90;;;;;;5053985;28;20048;-55
2020/12/20 11:21:53;;;;;;;14.60;8.48;;;8.30;99.90;;;;;;5053488;28;20045;-57
2020/12/20 11:24:39;;;;;;;13.35;7.50;;;8.30;99.90;;;;;;5037815;28;20048;-56
2020/12/20 11:27:27;;;;;;;15.93;8.50;;;8.20;99.90;;;;;;5053842;28;20481;-57
2020/12/20 11:30:13;;;;;;;17.90;9.73;;;8.20;99.90;;;;;;5054086;28;20090;-57
2020/12/20 11:32:59;;;;;;;14.77;8.40;;;8.30;99.90;;;;;;5054256;28;20059;-56
2020/12/20 11:35:45;;;;;;;13.82;8.15;;;8.30;99.90;;;;;;5053140;28;20037;-55
2020/12/20 11:38:33;;;;;;;20.48;8.32;;;8.30;99.90;;;;;;5038105;28;20480;-58
2020/12/20 11:41:27;;;;;;;15.68;7.38;;;8.20;99.90;;;;;;5052530;28;20072;-57
2020/12/20 11:44:13;;;;;;;18.05;8.27;;;8.20;99.90;;;;;;5038942;28;20035;-57
2020/12/20 11:46:59;;;;;;;17.63;9.20;;;8.30;99.90;;;;;;5053520;28;20048;-57
2020/12/20 11:49:45;;;;;;;13.95;8.25;;;8.30;99.90;;;;;;5052557;28;20037;-55
2020/12/20 11:52:37;;;;;;;15.90;8.30;;;8.40;99.90;;;;;;5038744;28;20064;-57
2020/12/20 11:55:23;;;;;;;;;;;8.40;99.90;;;;;;5038383;28;20072;-56
2020/12/20 11:58:12;;;;;;;14.40;7.28;;;8.60;99.90;;;;;;5052319;28;20511;-57
2020/12/20 12:00:59;;;;;;;19.05;8.15;;;8.50;99.90;;;;;;5053938;28;20076;-58
2020/12/20 12:03:45;;;;;;;17.88;7.93;;;8.50;99.90;;;;;;5052968;28;20851;-58
2020/12/20 12:06:31;;;;;;;16.25;7.38;;;8.70;99.90;;;;;;5053037;28;20037;-57
2020/12/20 12:09:17;;;;;;;11.82;7.55;;;8.60;99.90;;;;;;5053009;28;20029;-59
2020/12/20 12:12:03;;;;;;;13.57;7.38;;;8.60;99.90;;;;;;5053174;28;20037;-56
2020/12/20 12:14:49;;;;;;;15.00;7.82;;;8.50;99.90;;;;;;5052425;28;20051;-54
2020/12/20 12:17:35;;;;;;;15.18;8.55;;;8.50;99.90;;;;;;5053250;28;20060;-54
2020/12/20 12:20:21;;;;;;;16.58;9.10;;;8.80;99.90;;;;;;5051319;28;20060;-54
2020/12/20 12:23:07;;;;;;;13.88;8.10;;;8.80;99.90;;;;;;5053277;28;20126;-57
2020/12/20 12:25:54;;;;;;;14.43;7.78;;;8.80;99.90;;;;;;5053473;28;20123;-56
2020/12/20 12:28:40;;;;;;;16.45;8.02;;;8.80;99.90;;;;;;5051267;28;20025;-60
2020/12/20 12:31:27;;;;;;;15.40;8.15;;;8.60;99.90;;;;;;5052662;28;20041;-57
2020/12/20 12:34:13;;;;;;;17.20;8.57;;;8.80;99.90;;;;;;5038150;28;20059;-56
2020/12/20 12:36:59;;;;;;;13.10;8.07;;;9.00;99.90;;;;;;5052278;28;20029;-57
2020/12/20 12:39:45;;;;;;;19.42;10.30;;;8.90;99.90;;;;;;5051517;28;20029;-58
2020/12/20 12:42:31;;;;;;;14.75;7.75;;;8.80;99.90;;;;;;5052940;28;20037;-56
2020/12/20 12:45:19;;;;;;;16.52;7.82;;;8.70;99.90;;;;;;5052942;28;20072;-56
2020/12/20 12:48:07;;;;;;;14.63;9.13;;;8.80;99.90;;;;;;5050761;28;20045;-56
2020/12/20 12:50:53;;;;;;;14.63;8.23;;;8.60;99.90;;;;;;5050714;28;20044;-54
2020/12/20 12:53:39;;;;;;;14.02;7.97;;;8.50;99.90;;;;;;5050785;28;20033;-57
2020/12/20 12:56:25;;;;;;;16.60;9.30;;;8.70;99.90;;;;;;5049698;28;20112;-55
2020/12/20 12:59:11;;;;;;;14.95;8.10;;;8.80;99.90;;;;;;5003915;28;20045;-57
2020/12/20 13:01:57;;;;;;;14.13;7.70;;;8.70;99.90;;;;;;5036531;28;20045;-57
2020/12/20 13:04:43;;;;;;;13.57;7.05;;;8.60;99.90;;;;;;5051412;28;20117;-56
2020/12/20 13:07:29;;;;;;;17.92;10.00;;;8.60;99.90;;;;;;5051260;28;20045;-56
2020/12/20 13:10:15;;;;;;;13.88;7.80;;;8.60;99.90;;;;;;5049613;28;20043;-57
2020/12/20 13:13:01;;;;;;;14.52;8.75;;;8.60;99.90;;;;;;5051010;28;20036;-58
2020/12/20 13:15:48;;;;;;;13.73;8.00;;;8.50;99.90;;;;;;5050887;28;20574;-58
2020/12/20 13:18:34;;;;;;;17.85;8.95;;;8.50;99.90;;;;;;5046139;28;20033;-58
2020/12/20 13:21:22;;;;;;;18.65;8.35;;;8.60;99.90;;;;;;5049963;28;20448;-57
2020/12/20 13:24:08;;;;;;;15.48;8.77;;;8.60;99.90;;;;;;5051609;28;20036;-57
2020/12/20 13:26:54;;;;;;;15.90;8.55;;;8.60;99.90;;;;;;5050132;28;20041;-57
2020/12/20 13:29:41;;;;;;;18.10;9.77;;;8.50;99.90;;;;;;5050720;28;20134;-59
2020/12/20 13:32:27;;;;;;;16.13;9.70;;;8.30;99.90;;;;;;5023570;28;20056;-57
2020/12/20 13:35:13;;;;;;;17.50;9.85;;;8.40;99.90;;;;;;5036669;28;20041;-56
2020/12/20 13:38:01;;;;;;;15.05;9.38;;;8.30;99.90;;;;;;5052514;28;20047;-52
2020/12/20 13:40:48;;;;;;;15.63;9.13;;;8.40;99.90;;;;;;5051813;28;20032;-55
2020/12/20 13:43:34;;;;;;;24.58;11.60;;;8.20;99.90;;;;;;5051984;28;20037;-56
2020/12/20 13:46:20;;;;;;;21.58;10.55;;;8.20;99.90;;;;;;5051248;28;20489;-57
2020/12/20 13:49:06;;;;;;;21.85;12.02;;;8.30;99.90;;;;;;5049919;28;20041;-55
2020/12/20 13:51:52;;;;;;;20.02;11.43;;;8.40;99.90;;;;;;5050834;28;20072;-56
2020/12/20 13:54:38;;;;;;;17.45;10.00;;;8.60;99.90;;;;;;5050749;28;20098;-54
2020/12/20 13:57:25;;;;;;;16.33;9.90;;;8.60;99.90;;;;;;5051335;28;20493;-54
2020/12/20 14:00:11;;;;;;;17.83;10.18;;;8.50;99.90;;;;;;5051557;28;20037;-57
2020/12/20 14:02:57;;;;;;;18.02;10.05;;;8.50;99.90;;;;;;5049983;28;20037;-55
2020/12/20 14:05:43;;;;;;;20.35;10.40;;;8.40;99.90;;;;;;5051202;28;20567;-57
2020/12/20 14:08:29;;;;;;;17.50;10.57;;;8.30;99.90;;;;;;5035262;28;20037;-56
2020/12/20 14:11:16;;;;;;;18.90;10.35;;;8.30;99.90;;;;;;5049960;28;20041;-57
2020/12/20 14:14:02;;;;;;;19.17;9.75;;;8.40;99.90;;;;;;5048101;28;20462;-49
2020/12/20 14:16:50;;;;;;;19.48;10.77;;;8.40;99.90;;;;;;5045012;28;20025;-45
2020/12/20 14:19:36;;;;;;;21.15;9.85;;;8.50;99.90;;;;;;5048037;28;20075;-49
2020/12/20 14:22:22;;;;;;;20.17;9.85;;;8.40;99.90;;;;;;5050424;28;20041;-48
2020/12/20 14:25:08;;;;;;;20.45;10.30;;;8.40;99.90;;;;;;5050218;28;20053;-47
2020/12/20 14:27:55;;;;;;;17.40;9.85;;;8.40;99.90;;;;;;5049556;28;20049;-51
2020/12/20 14:30:41;;;;;;;18.67;10.05;;;8.40;99.90;;;;;;5045347;28;20033;-51
2020/12/20 14:33:27;;;;;;;18.15;11.48;;;8.30;99.90;;;;;;5046453;28;20043;-52
2020/12/20 14:36:13;;;;;;;22.27;11.27;;;8.20;99.90;;;;;;5034528;28;20482;-58